This is the latest recevied weather packets stored in our database for station/object KD8ZLZ-13. If no packets are shown the sender has not sent any weather packets the latest 10 day(s).
| Time | Temp. | Humidity | Pressure | Rain* | Wind** | Luminosity | Snow |
|---|---|---|---|---|---|---|---|
| 1778103642 | 13.89° C | 36% | 1013.2 hPa | 0 mm | - | 459 W/m² | - |
| 1778103043 | 13.33° C | 38% | 1013.6 hPa | 0 mm | - | 219 W/m² | - |
| 1778102443 | 13.33° C | 37% | 1013.6 hPa | 0 mm | - | 326 W/m² | - |
| 1778101842 | 13.89° C | 36% | 1013.6 hPa | 0 mm | - | 486 W/m² | - |
| 1778101243 | 14.44° C | 36% | 1013.6 hPa | 0 mm | - | 686 W/m² | - |
| 1778100643 | 13.33° C | 37% | 1013.6 hPa | 0 mm | - | 486 W/m² | - |
| 1778100043 | 12.78° C | 37% | 1013.6 hPa | 0 mm | - | 425 W/m² | - |
| 1778099443 | 13.33° C | 37% | 1013.6 hPa | 0 mm | - | 460 W/m² | - |
| 1778098842 | 13.33° C | 38% | 1013.6 hPa | 0 mm | - | 593 W/m² | - |
| 1778098242 | 12.78° C | 39% | 1013.6 hPa | 0 mm | - | 516 W/m² | - |
| 1778097642 | 13.33° C | 39% | 1013.6 hPa | 0 mm | - | 655 W/m² | - |
| 1778097043 | 12.78° C | 40% | 1013.9 hPa | 0 mm | - | 662 W/m² | - |
| 1778096442 | 13.33° C | 41% | 1013.9 hPa | 0 mm | - | 711 W/m² | - |
| 1778095842 | 12.22° C | 41% | 1013.9 hPa | 0 mm | - | 439 W/m² | - |
| 1778095242 | 11.67° C | 41% | 1013.9 hPa | 0 mm | - | 369 W/m² | - |
| 1778094642 | 12.22° C | 40% | 1013.9 hPa | 0 mm | - | 516 W/m² | - |
| 1778094042 | 12.22° C | 41% | 1013.6 hPa | 0 mm | - | 495 W/m² | - |
| 1778093442 | 12.78° C | 40% | 1013.6 hPa | 0 mm | - | 905 W/m² | - |
| 1778092842 | 11.67° C | 41% | 1013.6 hPa | 0 mm | - | 628 W/m² | - |
| 1778092242 | 12.22° C | 42% | 1013.6 hPa | 0 mm | - | 473 W/m² | - |
| 1778091642 | 12.22° C | 42% | 1013.9 hPa | 0 mm | - | 598 W/m² | - |
| 1778091042 | 11.67° C | 41% | 1013.9 hPa | 0 mm | - | 561 W/m² | - |
| 1778090442 | 11.67° C | 41% | 1014.2 hPa | 0 mm | - | 576 W/m² | - |
| 1778089842 | 11.11° C | 42% | 1014.2 hPa | 0 mm | - | 614 W/m² | - |
| 1778089242 | 11.11° C | 42% | 1014.2 hPa | 0 mm | - | 386 W/m² | - |
* Rain latest hour (hover to see other rain measurements)
** Current wind speed in m/s (hover to see current wind gust speed)